Time;durP1;ratioP1;P1;durP2;ratioP2;P2;SDS_P1;SDS_P2;PMS_P1;PMS_P2;Temp;Humidity;BMP_temperature;BMP_pressure;BME280_temperature;BME280_humidity;BME280_pressure;Samples;Min_cycle;Max_cycle;Signal;HPM_P1;HPM_P2
2022/05/31 05:14:39;;;;;;;;;;;;;;;18.20;49.26;96449.63;4254288;27;11126;-68
2022/05/31 05:16:42;;;;;;;;;;;;;;;18.45;49.30;96447.22;4248177;27;5169;-67
2022/05/31 05:18:49;;;;;;;;;;;;;;;18.66;48.96;96447.47;4232278;27;5862;-67
2022/05/31 05:20:52;;;;;;;;;;;;;;;18.82;48.82;96452.75;4231991;28;5655;-67
2022/05/31 05:22:54;;;;;;;;;;;;;;;18.97;48.76;96452.06;4231683;27;5735;-67
2022/05/31 05:24:57;;;;;;;;;;;;;;;19.10;48.48;96457.00;4231576;28;5642;-66
2022/05/31 05:27:00;;;;;;;;;;;;;;;19.20;48.48;96451.72;4229673;27;5889;-67
2022/05/31 05:31:27;;;;;;;;;;;;;;;19.43;48.06;96463.16;4240172;27;5748;-67
2022/05/31 05:33:31;;;;;;;;;;;;;;;19.67;47.90;96469.78;4230379;27;5675;-68
2022/05/31 05:35:34;;;;;;;;;;;;;;;19.97;47.59;96461.13;4231101;28;5818;-67
2022/05/31 05:37:37;;;;;;;;;;;;;;;20.20;47.26;96469.81;4239574;27;5665;-67
2022/05/31 05:39:40;;;;;;;;;;;;;;;20.42;46.76;96472.31;4232361;27;5772;-67
2022/05/31 05:41:49;;;;;;;;;;;;;;;20.61;46.43;96478.84;4219518;27;5837;-71
2022/05/31 05:43:52;;;;;;;;;;;;;;;20.69;46.55;96469.47;4234387;27;5757;-72
2022/05/31 05:45:55;;;;;;;;;;;;;;;20.74;46.47;96469.50;4230840;28;5672;-72
2022/05/31 05:48:00;;;;;;;;;;;;;;;20.79;46.32;96472.19;4238898;27;5721;-71
2022/05/31 05:50:09;;;;;;;;;;;;;;;20.79;46.30;96472.97;4230475;28;5778;-70
2022/05/31 05:52:15;;;;;;;;;;;;;;;20.88;46.14;96471.41;4231164;28;7247;-71
2022/05/31 05:54:18;;;;;;;;;;;;;;;20.94;45.80;96467.63;4232591;27;5690;-70
2022/05/31 05:56:23;;;;;;;;;;;;;;;21.08;45.62;96473.31;4231639;28;6336;-70
2022/05/31 05:58:26;;;;;;;;;;;;;;;21.16;45.60;96474.63;4234209;27;5677;-70
2022/05/31 06:00:31;;;;;;;;;;;;;;;21.23;45.20;96477.88;4248718;27;5743;-70
2022/05/31 06:02:34;;;;;;;;;;;;;;;21.31;45.06;96472.00;4248300;27;5642;-70
2022/05/31 06:04:58;;;;;;;;;;;;;;;21.45;44.93;96478.44;4246285;27;5851;-70
2022/05/31 06:07:12;;;;;;;;;;;;;;;21.81;44.28;96483.78;4238409;27;5694;-70
2022/05/31 06:09:19;;;;;;;;;;;;;;;21.97;44.17;96476.47;4234068;27;5987;-70
2022/05/31 06:11:33;;;;;;;;;;;;;;;21.85;44.12;96474.06;4248527;27;5656;-70
2022/05/31 06:13:40;;;;;;;;;;;;;;;22.02;44.18;96482.66;4239877;27;5649;-77
2022/05/31 06:15:48;;;;;;;;;;;;;;;22.08;43.91;96481.63;4233430;28;5717;-70
2022/05/31 06:17:56;;;;;;;;;;;;;;;22.04;43.83;96485.88;4215271;28;6260;-70
2022/05/31 06:20:03;;;;;;;;;;;;;;;21.97;44.04;96490.75;4217656;28;5777;-71
2022/05/31 06:22:08;;;;;;;;;;;;;;;21.91;43.87;96491.03;4218078;28;5687;-70
2022/05/31 06:24:12;;;;;;;;;;;;;;;21.85;44.17;96495.59;4226508;28;5687;-69
2022/05/31 06:26:16;;;;;;;;;;;;;;;21.80;44.01;96501.00;4219030;27;5814;-69
2022/05/31 06:28:19;;;;;;;;;;;;;;;21.73;44.11;96509.34;4230704;28;5666;-71
2022/05/31 06:30:22;;;;;;;;;;;;;;;21.65;44.07;96509.91;4236628;28;5645;-71
2022/05/31 06:32:25;;;;;;;;;;;;;;;21.61;43.89;96508.00;4220268;28;5113;-71
2022/05/31 06:34:31;;;;;;;;;;;;;;;21.57;43.74;96512.34;4219121;28;6312;-70
2022/05/31 06:36:35;;;;;;;;;;;;;;;21.57;43.91;96515.81;4219755;28;5762;-71
2022/05/31 06:38:41;;;;;;;;;;;;;;;21.57;43.68;96510.44;4219164;28;5683;-71
2022/05/31 06:40:44;;;;;;;;;;;;;;;21.57;43.68;96513.13;4218185;28;5723;-71
2022/05/31 06:42:47;;;;;;;;;;;;;;;21.57;43.74;96518.50;4219829;28;5768;-71
2022/05/31 06:44:50;;;;;;;;;;;;;;;21.57;43.72;96523.91;4219512;28;5675;-73
2022/05/31 06:46:52;;;;;;;;;;;;;;;21.58;43.55;96516.63;4218240;28;5844;-71
2022/05/31 06:48:57;;;;;;;;;;;;;;;21.55;43.41;96522.56;4219406;28;5769;-71
2022/05/31 06:51:04;;;;;;;;;;;;;;;21.49;43.20;96527.91;4219467;28;5683;-71
2022/05/31 06:57:51;;;;;;;;;;;;;;;21.50;43.17;96529.53;4219644;28;5733;-72
2022/05/31 06:59:54;;;;;;;;;;;;;;;21.51;43.43;96523.06;4219629;28;5739;-70
2022/05/31 07:02:04;;;;;;;;;;;;;;;21.54;42.92;96526.31;4219014;28;5778;-70
2022/05/31 07:04:07;;;;;;;;;;;;;;;21.56;43.03;96521.47;4218296;28;5754;-71
2022/05/31 07:06:10;;;;;;;;;;;;;;;21.60;43.04;96527.91;4219229;28;5675;-70
2022/05/31 07:08:14;;;;;;;;;;;;;;;21.61;42.95;96518.78;4219205;28;5671;-71
2022/05/31 07:10:17;;;;;;;;;;;;;;;21.61;42.79;96518.78;4219262;28;5686;-70
2022/05/31 07:12:21;;;;;;;;;;;;;;;21.62;42.82;96512.31;4219224;28;5679;-71
2022/05/31 07:14:24;;;;;;;;;;;;;;;21.62;42.81;96515.00;4217553;28;5619;-71
2022/05/31 07:16:27;;;;;;;;;;;;;;;21.62;42.84;96520.38;4218749;28;5718;-70
2022/05/31 07:18:30;;;;;;;;;;;;;;;21.66;42.72;96516.09;4219400;28;5682;-72
2022/05/31 07:20:34;;;;;;;;;;;;;;;21.72;42.50;96509.63;4218662;28;5678;-71
2022/05/31 07:22:38;;;;;;;;;;;;;;;21.82;42.08;96523.06;4217529;28;5742;-70
2022/05/31 07:24:43;;;;;;;;;;;;;;;21.93;42.24;96516.59;4218912;28;5682;-70
2022/05/31 07:26:47;;;;;;;;;;;;;;;21.96;41.96;96521.41;4217050;28;5683;-71
2022/05/31 07:28:50;;;;;;;;;;;;;;;21.98;41.90;96521.97;4217555;28;5623;-71
2022/05/31 07:30:53;;;;;;;;;;;;;;;22.00;41.83;96527.91;4218967;28;5675;-71
2022/05/31 07:32:56;;;;;;;;;;;;;;;22.00;41.42;96527.91;4218933;28;5789;-71
2022/05/31 07:35:20;;;;;;;;;;;;;;;21.99;41.34;96549.69;4218704;28;5780;-70
2022/05/31 07:37:23;;;;;;;;;;;;;;;21.98;41.62;96540.00;4218708;28;5671;-70
2022/05/31 07:39:26;;;;;;;;;;;;;;;21.95;41.66;96525.19;4218924;28;5758;-70
2022/05/31 07:41:34;;;;;;;;;;;;;;;21.97;41.71;96533.00;4218807;28;5687;-71
2022/05/31 07:43:37;;;;;;;;;;;;;;;21.99;41.25;96545.13;4218711;28;5682;-71
2022/05/31 07:45:40;;;;;;;;;;;;;;;22.02;41.34;96538.38;4218422;28;5667;-71
2022/05/31 07:47:46;;;;;;;;;;;;;;;22.05;41.18;96544.03;4218531;28;5704;-71
2022/05/31 07:49:49;;;;;;;;;;;;;;;22.11;41.05;96549.44;4218281;28;5667;-70
2022/05/31 07:51:51;;;;;;;;;;;;;;;22.13;40.78;96552.66;4218351;28;5763;-71
2022/05/31 07:53:55;;;;;;;;;;;;;;;22.12;40.82;96548.38;4218388;28;5741;-70
2022/05/31 07:56:00;;;;;;;;;;;;;;;22.17;40.71;96553.72;4218473;28;6345;-70
2022/05/31 08:00:25;;;;;;;;;;;;;;;22.24;40.67;96549.69;4218423;28;5679;-70
2022/05/31 08:02:29;;;;;;;;;;;;;;;22.27;40.53;96556.41;4218226;28;5811;-70
2022/05/31 08:04:32;;;;;;;;;;;;;;;22.31;40.80;96552.06;4217497;28;5750;-69
2022/05/31 08:06:36;;;;;;;;;;;;;;;22.31;40.77;96554.75;4218269;28;5683;-69
2022/05/31 08:08:39;;;;;;;;;;;;;;;22.34;40.64;96559.63;4216351;28;6290;-69
2022/05/31 08:10:43;;;;;;;;;;;;;;;22.32;40.68;96561.78;4218203;28;6391;-69
2022/05/31 08:12:47;;;;;;;;;;;;;;;22.32;40.63;96559.91;4217929;28;5760;-70
2022/05/31 08:14:52;;;;;;;;;;;;;;;22.27;40.71;96559.91;4217863;28;5911;-70
2022/05/31 08:16:55;;;;;;;;;;;;;;;22.24;40.91;96570.41;4217239;28;5612;-70
2022/05/31 08:18:59;;;;;;;;;;;;;;;22.22;40.84;96553.72;4218025;28;5826;-69
2022/05/31 08:21:06;;;;;;;;;;;;;;;22.15;41.02;96583.59;4217705;28;5856;-70
2022/05/31 08:23:10;;;;;;;;;;;;;;;22.10;41.37;96577.44;4218113;28;5822;-69
2022/05/31 08:25:13;;;;;;;;;;;;;;;22.03;41.23;96581.19;4217982;28;5675;-69
2022/05/31 08:27:17;;;;;;;;;;;;;;;21.96;41.51;96588.72;4218119;28;6124;-69
2022/05/31 08:29:20;;;;;;;;;;;;;;;21.91;41.55;96593.31;4217882;28;5779;-70
2022/05/31 08:31:28;;;;;;;;;;;;;;;21.87;41.52;96592.22;4217782;28;5804;-70
2022/05/31 08:33:33;;;;;;;;;;;;;;;21.83;42.05;96599.22;4216682;28;5914;-70
2022/05/31 08:35:36;;;;;;;;;;;;;;;21.79;42.11;96601.66;4216839;28;5683;-71
2022/05/31 08:37:59;;;;;;;;;;;;;;;21.77;42.25;96599.22;4217625;28;5656;-70
2022/05/31 08:40:03;;;;;;;;;;;;;;;21.72;42.13;96603.78;4216686;28;5084;-70
2022/05/31 08:42:10;;;;;;;;;;;;;;;21.64;42.50;96598.97;4217881;28;5678;-69
2022/05/31 08:44:33;;;;;;;;;;;;;;;21.58;42.56;96606.19;4217640;28;5687;-71
2022/05/31 08:47:03;;;;;;;;;;;;;;;21.53;42.80;96603.53;4217648;28;5678;-70
2022/05/31 08:49:14;;;;;;;;;;;;;;;21.49;42.95;96611.28;4217543;28;5058;-70
2022/05/31 08:53:44;;;;;;;;;;;;;;;21.46;43.38;96608.34;4217852;28;5699;-70
2022/05/31 08:58:20;;;;;;;;;;;;;;;21.45;43.41;96609.41;4217928;28;5686;-69
2022/05/31 09:00:28;;;;;;;;;;;;;;;21.42;43.76;96609.97;4216466;28;5647;-70
2022/05/31 09:02:41;;;;;;;;;;;;;;;21.40;43.71;96612.06;4217458;28;6387;-70
2022/05/31 09:04:59;;;;;;;;;;;;;;;21.40;43.97;96606.69;4215775;28;5612;-69
2022/05/31 09:07:06;;;;;;;;;;;;;;;21.39;43.96;96616.66;4217598;28;5663;-69
2022/05/31 09:09:16;;;;;;;;;;;;;;;21.37;43.79;96610.72;4216197;28;5631;-70
2022/05/31 09:11:25;;;;;;;;;;;;;;;21.37;44.23;96605.34;4217544;28;5671;-69
2022/05/31 09:13:37;;;;;;;;;;;;;;;21.36;43.83;96605.63;4217172;28;5770;-69
2022/05/31 09:15:46;;;;;;;;;;;;;;;21.34;43.96;96610.47;4217646;28;5720;-69
2022/05/31 09:18:03;;;;;;;;;;;;;;;21.33;44.36;96614.22;4217545;28;5667;-70
2022/05/31 09:20:12;;;;;;;;;;;;;;;21.35;44.12;96620.16;4216957;28;5667;-70
2022/05/31 09:22:16;;;;;;;;;;;;;;;21.37;44.33;96621.50;4217390;28;5666;-69
2022/05/31 09:24:22;;;;;;;;;;;;;;;21.39;44.16;96621.22;4216756;28;5769;-70
2022/05/31 09:26:52;;;;;;;;;;;;;;;21.42;44.58;96623.41;4217395;28;5870;-70
2022/05/31 09:29:03;;;;;;;;;;;;;;;21.43;44.30;96633.88;4217080;28;5674;-70
2022/05/31 09:31:21;;;;;;;;;;;;;;;21.44;44.42;96624.75;4216932;28;5683;-70
2022/05/31 09:33:40;;;;;;;;;;;;;;;21.47;44.58;96629.59;4217211;28;5654;-70
2022/05/31 09:35:53;;;;;;;;;;;;;;;21.53;44.38;96624.22;4215739;28;7016;-70
2022/05/31 09:38:19;;;;;;;;;;;;;;;21.53;44.51;96624.22;4217408;28;5670;-70
2022/05/31 09:40:37;;;;;;;;;;;;;;;21.57;44.60;96628.00;4217334;28;5690;-70
2022/05/31 09:42:46;;;;;;;;;;;;;;;21.59;44.84;96623.16;4217522;28;5753;-70
2022/05/31 09:45:00;;;;;;;;;;;;;;;21.61;44.91;96621.00;4217419;28;5678;-70
2022/05/31 09:47:10;;;;;;;;;;;;;;;21.64;45.00;96623.16;4217301;28;5859;-70
2022/05/31 09:49:26;;;;;;;;;;;;;;;21.71;44.69;96629.06;4217102;28;5675;-70
2022/05/31 09:51:36;;;;;;;;;;;;;;;21.75;44.72;96627.47;4220277;28;5939;-70
2022/05/31 09:58:26;;;;;;;;;;;;;;;21.85;45.03;96621.28;4219093;28;5638;-70
2022/05/31 10:00:30;;;;;;;;;;;;;;;21.85;45.38;96626.66;4220504;28;5679;-70
2022/05/31 10:02:36;;;;;;;;;;;;;;;21.83;45.18;96624.25;4220208;28;5811;-69
2022/05/31 10:04:41;;;;;;;;;;;;;;;21.83;45.48;96626.13;4212083;28;5825;-70
2022/05/31 10:06:55;;;;;;;;;;;;;;;21.83;45.43;96626.13;4201452;28;5631;-71
2022/05/31 10:09:15;;;;;;;;;;;;;;;21.83;45.22;96632.31;4203018;28;5744;-70
2022/05/31 10:11:25;;;;;;;;;;;;;;;21.81;45.50;96629.09;4203566;28;5702;-70
2022/05/31 10:13:38;;;;;;;;;;;;;;;21.79;45.50;96628.56;4202874;28;5827;-70
2022/05/31 10:15:50;;;;;;;;;;;;;;;21.77;45.79;96634.19;4203220;28;5696;-70
2022/05/31 10:18:01;;;;;;;;;;;;;;;21.77;45.82;96639.59;4202234;28;5069;-70
2022/05/31 10:20:13;;;;;;;;;;;;;;;21.76;46.02;96639.84;4202952;28;6376;-70
2022/05/31 10:22:20;;;;;;;;;;;;;;;21.72;45.96;96636.88;4203306;28;5783;-70
2022/05/31 10:24:26;;;;;;;;;;;;;;;21.73;45.86;96637.69;4201850;28;5638;-70
2022/05/31 10:26:32;;;;;;;;;;;;;;;21.75;45.89;96638.25;4203354;28;5760;-70
2022/05/31 10:28:38;;;;;;;;;;;;;;;21.73;46.24;96638.47;4202957;28;5732;-70
2022/05/31 10:30:41;;;;;;;;;;;;;;;21.72;46.03;96644.13;4203059;28;6394;-70
2022/05/31 10:32:50;;;;;;;;;;;;;;;21.71;46.32;96643.34;4203008;28;5058;-70
2022/05/31 10:35:13;;;;;;;;;;;;;;;21.72;46.10;96631.50;4202742;28;5678;-70
2022/05/31 10:37:25;;;;;;;;;;;;;;;21.75;46.22;96643.63;4202739;28;5890;-69
2022/05/31 10:39:31;;;;;;;;;;;;;;;21.75;46.53;96644.44;4202888;28;5997;-69
2022/05/31 10:41:35;;;;;;;;;;;;;;;21.76;46.33;96637.16;4202970;28;6366;-70
2022/05/31 10:44:03;;;;;;;;;;;;;;;21.76;46.42;96640.66;4202943;28;5771;-69
2022/05/31 10:46:12;;;;;;;;;;;;;;;21.77;46.65;96636.09;4202731;28;7743;-69
2022/05/31 10:48:15;;;;;;;;;;;;;;;21.74;46.54;96632.03;4202803;28;5704;-69
2022/05/31 10:50:19;;;;;;;;;;;;;;;21.75;46.46;96632.88;4202579;28;5682;-70
2022/05/31 10:52:30;;;;;;;;;;;;;;;21.77;47.00;96636.09;4202641;28;5685;-69
2022/05/31 10:54:49;;;;;;;;;;;;;;;21.76;47.02;96637.16;4202565;28;5708;-70
2022/05/31 10:57:05;;;;;;;;;;;;;;;21.76;47.08;96647.94;4202201;28;5748;-69
2022/05/31 10:59:17;;;;;;;;;;;;;;;21.77;46.83;96636.09;4202965;28;5696;-69
2022/05/31 11:01:33;;;;;;;;;;;;;;;21.77;46.94;96638.78;4202465;28;5752;-69
2022/05/31 11:03:42;;;;;;;;;;;;;;;21.78;47.45;96635.00;4202581;28;6358;-70
2022/05/31 11:05:58;;;;;;;;;;;;;;;21.79;46.91;96633.94;4222074;28;5653;-69
2022/05/31 11:13:11;;;;;;;;;;;;;;;21.80;47.45;96635.53;4235810;28;5272;-70
2022/05/31 11:15:35;;;;;;;;;;;;;;;21.81;47.28;96639.84;4236007;28;5673;-69
2022/05/31 11:18:05;;;;;;;;;;;;;;;21.80;47.19;96638.22;4236059;27;5657;-70
2022/05/31 11:20:15;;;;;;;;;;;;;;;21.81;47.58;96639.84;4234454;28;5608;-70
2022/05/31 11:22:30;;;;;;;;;;;;;;;21.79;47.46;96639.31;4209743;28;5696;-70
2022/05/31 11:24:52;;;;;;;;;;;;;;;21.77;47.62;96642.28;4205372;28;5113;-69
2022/05/31 11:27:12;;;;;;;;;;;;;;;21.79;47.59;96632.03;4218826;28;5778;-70
2022/05/31 11:29:46;;;;;;;;;;;;;;;21.86;47.25;96634.50;4219112;28;6370;-69
2022/05/31 11:31:58;;;;;;;;;;;;;;;21.93;47.26;96635.00;4218915;28;5670;-69
2022/05/31 11:34:18;;;;;;;;;;;;;;;21.98;47.22;96629.63;4218308;28;5758;-70
2022/05/31 11:36:29;;;;;;;;;;;;;;;22.04;47.07;96633.13;4212198;28;5880;-71
2022/05/31 11:38:44;;;;;;;;;;;;;;;22.08;47.43;96636.91;4216031;28;5703;-66
2022/05/31 11:41:03;;;;;;;;;;;;;;;22.10;47.48;96631.28;4218248;28;5765;-69
2022/05/31 11:43:45;;;;;;;;;;;;;;;22.11;47.36;96636.41;4219075;28;5678;-68
2022/05/31 11:45:57;;;;;;;;;;;;;;;22.14;47.35;96640.41;4193502;28;6376;-69
2022/05/31 11:48:22;;;;;;;;;;;;;;;22.12;47.37;96642.59;4218658;28;5662;-68
2022/05/31 11:50:35;;;;;;;;;;;;;;;22.12;47.39;96642.59;4218607;28;5679;-67
2022/05/31 11:52:54;;;;;;;;;;;;;;;22.11;47.30;96635.59;4218689;28;5766;-69
2022/05/31 11:55:29;;;;;;;;;;;;;;;22.07;47.32;96644.19;4217194;28;5619;-69
2022/05/31 11:57:43;;;;;;;;;;;;;;;22.03;47.63;96651.16;4218400;28;5757;-67
2022/05/31 11:59:53;;;;;;;;;;;;;;;22.03;47.64;96647.66;4218339;28;5760;-67
2022/05/31 12:02:05;;;;;;;;;;;;;;;22.02;47.80;96644.16;4218455;28;5670;-68
2022/05/31 12:04:12;;;;;;;;;;;;;;;22.03;47.69;96644.97;4215365;28;5663;-69
2022/05/31 12:06:19;;;;;;;;;;;;;;;22.04;47.44;96644.69;4201483;28;5687;-69
2022/05/31 12:08:30;;;;;;;;;;;;;;;22.07;47.63;96652.25;4209817;28;5674;-67
2022/05/31 12:10:42;;;;;;;;;;;;;;;22.07;47.64;96646.88;4218263;28;5715;-68
2022/05/31 12:12:45;;;;;;;;;;;;;;;22.07;47.96;96652.25;4217255;28;5670;-68
2022/05/31 12:15:00;;;;;;;;;;;;;;;22.08;48.11;96653.06;4218250;28;5806;-68
2022/05/31 12:17:04;;;;;;;;;;;;;;;22.08;48.00;96653.91;4218137;28;5663;-67
2022/05/31 12:19:18;;;;;;;;;;;;;;;22.04;48.09;96655.47;4217905;28;7121;-67
2022/05/31 12:21:29;;;;;;;;;;;;;;;22.01;48.53;96647.13;4218101;28;5778;-68
2022/05/31 12:23:38;;;;;;;;;;;;;;;21.99;48.59;96655.47;4234695;28;5836;-68
2022/05/31 12:25:53;;;;;;;;;;;;;;;21.98;48.85;96653.06;4235046;28;5716;-69
2022/05/31 12:28:07;;;;;;;;;;;;;;;21.96;48.63;96644.41;4234890;28;5727;-68
2022/05/31 12:30:19;;;;;;;;;;;;;;;21.93;49.21;96653.03;4235264;28;5740;-67
2022/05/31 12:32:30;;;;;;;;;;;;;;;21.91;48.96;96658.69;4234354;27;5176;-68
2022/05/31 12:34:44;;;;;;;;;;;;;;;21.90;49.38;96658.97;4233950;28;5642;-68
2022/05/31 12:36:59;;;;;;;;;;;;;;;21.89;49.52;96666.22;4216491;28;5667;-71
2022/05/31 12:39:08;;;;;;;;;;;;;;;21.89;49.30;96660.84;4217328;28;5706;-69
2022/05/31 12:41:33;;;;;;;;;;;;;;;21.89;49.47;96663.53;4216079;28;5674;-69
2022/05/31 12:43:51;;;;;;;;;;;;;;;21.89;49.57;96660.03;4207328;28;5712;-69
2022/05/31 12:45:54;;;;;;;;;;;;;;;21.88;50.04;96658.44;4203822;28;5838;-69
2022/05/31 12:48:00;;;;;;;;;;;;;;;21.87;49.96;96671.09;4214382;28;5799;-69
2022/05/31 12:50:07;;;;;;;;;;;;;;;21.85;50.09;96659.75;4208409;28;5756;-69
2022/05/31 12:54:53;;;;;;;;;;;;;;;21.83;50.54;96664.59;4188040;28;5704;-69
2022/05/31 12:57:00;;;;;;;;;;;;;;;21.82;50.53;96665.69;4214458;28;5733;-69
2022/05/31 12:59:43;;;;;;;;;;;;;;;21.77;50.72;96666.50;4217410;28;5641;-69
2022/05/31 13:01:59;;;;;;;;;;;;;;;21.76;51.27;96672.16;4201875;28;6209;-69
2022/05/31 13:04:31;;;;;;;;;;;;;;;21.74;50.98;96666.19;4217621;28;5757;-70
2022/05/31 13:06:37;;;;;;;;;;;;;;;21.68;51.30;96665.41;4199596;28;5750;-70
2022/05/31 13:08:59;;;;;;;;;;;;;;;21.68;51.50;96675.34;4207776;28;5916;-65
2022/05/31 13:20:44;;;;;;;;;;;;;;;21.56;52.05;96690.94;4215705;28;5866;-67
2022/05/31 13:22:58;;;;;;;;;;;;;;;21.54;52.12;96695.78;4220248;28;5687;-69
2022/05/31 13:25:07;;;;;;;;;;;;;;;21.52;51.96;96698.72;4217827;28;5686;-67
2022/05/31 13:27:11;;;;;;;;;;;;;;;21.50;51.90;96704.34;4217335;28;5659;-68
2022/05/31 13:29:21;;;;;;;;;;;;;;;21.48;52.21;96711.06;4233729;28;6402;-66
2022/05/31 13:31:26;;;;;;;;;;;;;;;21.47;51.92;96710.25;4233762;28;5732;-65
2022/05/31 13:33:30;;;;;;;;;;;;;;;21.46;52.42;96721.28;4203815;28;5779;-67
2022/05/31 13:35:34;;;;;;;;;;;;;;;21.43;52.09;96714.56;4212804;28;5709;-67
2022/05/31 13:37:51;;;;;;;;;;;;;;;21.41;52.20;96723.97;4235448;27;6342;-67
2022/05/31 13:39:54;;;;;;;;;;;;;;;21.39;52.22;96718.84;4220660;28;5750;-67
2022/05/31 13:42:03;;;;;;;;;;;;;;;21.38;52.41;96724.47;4219465;28;5685;-67
2022/05/31 13:44:07;;;;;;;;;;;;;;;21.33;52.38;96721.78;4220733;28;5817;-67
2022/05/31 13:46:21;;;;;;;;;;;;;;;21.27;52.52;96712.88;4219927;28;5671;-67
2022/05/31 13:48:28;;;;;;;;;;;;;;;21.22;52.73;96723.59;4220148;28;5750;-69
2022/05/31 13:50:38;;;;;;;;;;;;;;;21.18;52.99;96725.19;4219120;28;5660;-68
2022/05/31 13:52:41;;;;;;;;;;;;;;;21.11;53.00;96730.78;4211352;28;5696;-73
2022/05/31 13:54:44;;;;;;;;;;;;;;;21.05;53.04;96731.03;4204196;28;5620;-70
2022/05/31 13:56:55;;;;;;;;;;;;;;;21.02;53.29;96726.97;4203828;28;5748;-70
2022/05/31 13:58:58;;;;;;;;;;;;;;;20.99;53.66;96727.50;4206909;28;5690;-69
2022/05/31 14:01:02;;;;;;;;;;;;;;;20.99;53.28;96724.03;4219958;28;5667;-74
2022/05/31 14:03:20;;;;;;;;;;;;;;;20.99;53.57;96724.81;4219450;28;5656;-69
2022/05/31 14:05:28;;;;;;;;;;;;;;;20.98;53.43;96720.53;4217010;28;5735;-68
2022/05/31 14:07:33;;;;;;;;;;;;;;;20.97;53.54;96724.28;4220112;28;5778;-70
2022/05/31 14:09:38;;;;;;;;;;;;;;;20.96;53.83;96727.22;4220168;28;5682;-70
2022/05/31 14:11:51;;;;;;;;;;;;;;;20.97;53.80;96728.84;4219964;28;5694;-71
2022/05/31 14:13:56;;;;;;;;;;;;;;;20.96;53.60;96721.84;4219341;28;5675;-70
2022/05/31 14:16:15;;;;;;;;;;;;;;;20.95;54.11;96729.09;4219534;28;5679;-74
2022/05/31 14:18:24;;;;;;;;;;;;;;;20.94;53.86;96720.22;4220571;28;5683;-76
2022/05/31 14:20:28;;;;;;;;;;;;;;;20.95;53.86;96726.41;4213074;28;5688;-67
2022/05/31 14:22:35;;;;;;;;;;;;;;;20.96;54.13;96721.84;4209152;28;5708;-65
2022/05/31 14:24:39;;;;;;;;;;;;;;;20.96;53.87;96727.22;4209022;28;5814;-64
2022/05/31 14:26:44;;;;;;;;;;;;;;;20.96;54.26;96727.22;4214213;28;6351;-67
2022/05/31 14:29:14;;;;;;;;;;;;;;;20.95;54.27;96721.03;4216315;28;6445;-68
2022/05/31 14:31:25;;;;;;;;;;;;;;;20.93;54.11;96718.59;4209995;28;5789;-70
2022/05/31 14:33:33;;;;;;;;;;;;;;;20.92;54.31;96726.94;4206898;28;5642;-68
2022/05/31 14:35:41;;;;;;;;;;;;;;;20.90;54.17;96732.56;4211824;28;6329;-71
2022/05/31 14:37:51;;;;;;;;;;;;;;;20.91;54.23;96726.13;4219854;28;5735;-68
2022/05/31 14:40:03;;;;;;;;;;;;;;;20.91;54.67;96734.19;4215706;28;5858;-70
2022/05/31 14:42:16;;;;;;;;;;;;;;;20.91;54.60;96728.81;4211480;28;7728;-75
2022/05/31 14:44:34;;;;;;;;;;;;;;;20.90;54.68;96718.31;4213448;28;5838;-74
2022/05/31 14:46:39;;;;;;;;;;;;;;;20.88;54.64;96718.59;4202986;28;5795;-73
2022/05/31 14:48:51;;;;;;;;;;;;;;;20.87;54.92;96724.22;4202475;28;5802;-72
2022/05/31 14:50:57;;;;;;;;;;;;;;;20.86;55.04;96738.72;4209203;28;5680;-70
2022/05/31 14:53:16;;;;;;;;;;;;;;;20.84;54.83;96730.94;4202022;28;5794;-71
2022/05/31 14:55:41;;;;;;;;;;;;;;;20.84;55.17;96730.94;4213603;28;5830;-68
2022/05/31 15:00:13;;;;;;;;;;;;;;;20.84;54.92;96736.31;4213919;28;5759;-66
2022/05/31 15:02:19;;;;;;;;;;;;;;;20.84;54.94;96740.88;4212635;28;5782;-69
2022/05/31 15:04:46;;;;;;;;;;;;;;;20.84;55.26;96733.63;4213964;28;5833;-67
2022/05/31 15:07:00;;;;;;;;;;;;;;;20.84;55.32;96739.00;4174701;28;6216;-69
2022/05/31 15:09:10;;;;;;;;;;;;;;;20.85;55.54;96742.50;4151294;28;6722;-66
2022/05/31 15:19:00;;;;;;;;;;;;;;;20.72;55.70;96745.59;4180108;28;5979;-65
2022/05/31 15:21:05;;;;;;;;;;;;;;;20.66;55.70;96742.09;4180046;28;6601;-66
2022/05/31 15:23:10;;;;;;;;;;;;;;;20.63;55.98;96750.66;4172501;28;5849;-68
2022/05/31 15:25:18;;;;;;;;;;;;;;;20.60;55.88;96746.59;4166521;28;5880;-67
2022/05/31 15:27:24;;;;;;;;;;;;;;;20.59;56.06;96750.34;4171387;28;5868;-68
2022/05/31 15:29:28;;;;;;;;;;;;;;;20.59;56.08;96746.84;4180386;28;5828;-66
2022/05/31 15:31:33;;;;;;;;;;;;;;;20.59;56.30;96750.34;4175163;28;6028;-66
2022/05/31 15:34:00;;;;;;;;;;;;;;;20.61;56.14;96747.41;4175120;28;5851;-65
2022/05/31 15:36:05;;;;;;;;;;;;;;;20.63;56.34;96750.66;4166878;28;5864;-65
2022/05/31 15:38:19;;;;;;;;;;;;;;;20.64;56.54;96752.28;4194978;28;5889;-68
2022/05/31 15:40:23;;;;;;;;;;;;;;;20.67;56.58;96750.94;4209209;28;5757;-68
2022/05/31 15:42:26;;;;;;;;;;;;;;;20.67;56.27;96748.25;4213796;28;5834;-63
2022/05/31 15:44:30;;;;;;;;;;;;;;;20.72;56.52;96749.09;4205052;28;5830;-69
2022/05/31 15:46:36;;;;;;;;;;;;;;;20.77;56.62;96749.16;4212520;28;5789;-69
2022/05/31 15:48:39;;;;;;;;;;;;;;;20.81;56.46;96741.38;4203489;28;5853;-69
2022/05/31 15:50:42;;;;;;;;;;;;;;;20.83;56.66;96740.03;4210302;28;5790;-68
2022/05/31 15:52:48;;;;;;;;;;;;;;;20.85;56.25;96743.28;4203028;28;5973;-69
2022/05/31 15:54:55;;;;;;;;;;;;;;;20.89;56.43;96736.31;4203690;28;5777;-69
2022/05/31 15:56:58;;;;;;;;;;;;;;;20.91;56.44;96738.75;4211083;28;5836;-69
2022/05/31 15:59:01;;;;;;;;;;;;;;;20.94;56.62;96730.16;4207988;28;5798;-69
2022/05/31 16:01:04;;;;;;;;;;;;;;;20.93;56.64;96744.66;4206580;28;5890;-67
2022/05/31 16:03:09;;;;;;;;;;;;;;;20.89;56.72;96739.00;4204666;28;5716;-69
2022/05/31 16:05:14;;;;;;;;;;;;;;;20.88;56.76;96748.13;4211393;28;5876;-67
2022/05/31 16:07:21;;;;;;;;;;;;;;;20.88;56.85;96745.44;4206561;28;5996;-66
2022/05/31 16:09:29;;;;;;;;;;;;;;;20.91;57.06;96744.94;4212348;28;5787;-69
2022/05/31 16:11:32;;;;;;;;;;;;;;;20.92;57.13;96749.22;4200698;28;5826;-67
2022/05/31 16:13:35;;;;;;;;;;;;;;;20.91;56.92;96741.44;4204951;28;5932;-69
2022/05/31 16:15:39;;;;;;;;;;;;;;;20.88;57.30;96748.13;4211878;28;5834;-68
2022/05/31 16:17:42;;;;;;;;;;;;;;;20.85;57.41;96743.28;4215187;28;5769;-67
2022/05/31 16:19:45;;;;;;;;;;;;;;;20.81;57.57;96747.53;4206722;28;5803;-65
2022/05/31 16:21:48;;;;;;;;;;;;;;;20.77;57.61;96748.34;4204152;28;5683;-69
2022/05/31 16:23:53;;;;;;;;;;;;;;;20.74;57.62;96748.88;4203980;28;5779;-69
2022/05/31 16:25:58;;;;;;;;;;;;;;;20.72;57.90;96754.47;4205377;28;5847;-69
2022/05/31 16:28:01;;;;;;;;;;;;;;;20.71;57.58;96758.22;4204760;28;5790;-69
2022/05/31 16:30:05;;;;;;;;;;;;;;;20.71;57.88;96752.84;4207417;28;5765;-67
2022/05/31 16:32:11;;;;;;;;;;;;;;;20.70;57.87;96745.88;4210501;28;5724;-65
2022/05/31 16:34:14;;;;;;;;;;;;;;;20.69;57.99;96749.63;4206529;28;5642;-64
2022/05/31 16:36:22;;;;;;;;;;;;;;;20.71;57.81;96750.16;4208287;28;5806;-65
2022/05/31 16:41:14;;;;;;;;;;;;;;;20.71;58.08;96752.84;4144596;28;5774;-66
2022/05/31 16:43:19;;;;;;;;;;;;;;;20.69;58.30;96751.50;4144801;28;5799;-66
2022/05/31 16:45:22;;;;;;;;;;;;;;;20.68;58.17;96752.56;4144262;28;5794;-66
2022/05/31 16:47:28;;;;;;;;;;;;;;;20.64;58.29;96744.22;4145702;28;5885;-66
2022/05/31 16:49:31;;;;;;;;;;;;;;;20.61;58.32;96742.88;4143885;28;5778;-66
2022/05/31 16:51:36;;;;;;;;;;;;;;;20.60;58.30;96745.78;4144536;28;5797;-66
2022/05/31 16:53:39;;;;;;;;;;;;;;;20.62;58.36;96751.75;4145851;28;5798;-66
2022/05/31 16:55:42;;;;;;;;;;;;;;;20.64;58.18;96754.97;4143846;28;5794;-66
2022/05/31 16:57:46;;;;;;;;;;;;;;;20.62;58.51;96759.78;4146419;28;5900;-66
2022/05/31 16:59:50;;;;;;;;;;;;;;;20.63;58.27;96758.72;4145234;28;5782;-66
2022/05/31 17:01:53;;;;;;;;;;;;;;;20.62;58.28;96763.28;4142763;28;5848;-66
2022/05/31 17:04:02;;;;;;;;;;;;;;;20.61;58.45;96755.47;4143141;28;5261;-65
2022/05/31 17:06:06;;;;;;;;;;;;;;;20.60;58.17;96757.34;4141257;28;6578;-66
2022/05/31 17:15:18;;;;;;;;;;;;;;;20.64;58.56;96771.91;4140694;28;5799;-66
2022/05/31 17:17:21;;;;;;;;;;;;;;;20.64;58.66;96774.56;4177811;28;5870;-65
2022/05/31 17:19:24;;;;;;;;;;;;;;;20.63;58.46;96772.16;4197343;28;6185;-66
2022/05/31 17:21:27;;;;;;;;;;;;;;;20.62;58.70;96776.72;4198064;28;5855;-66
2022/05/31 17:23:35;;;;;;;;;;;;;;;20.61;58.13;96776.94;4212199;28;5676;-66
2022/05/31 17:25:43;;;;;;;;;;;;;;;20.61;58.33;96768.88;4203529;28;5782;-66
2022/05/31 17:27:46;;;;;;;;;;;;;;;20.62;58.60;96775.91;4207897;28;5860;-66
2022/05/31 17:29:49;;;;;;;;;;;;;;;20.63;58.29;96777.53;4208345;28;6099;-66